.
WxDataArchive / Data Records for 2008-05-30
2008-05-29 May 2008 2008-05-31

Data Records for Friday, 30 May 2008

Time	Temp	Chill	HIndex	Humid	Dewpt	 Wind 	HiWind	WindDir	Rain 	Barom 
-----	----	-----	------	-----	-----	------	------	-------	-----	----- 
00:00	56.0	56.0	56.0	58	41.4	0	0	---	0.00	30.003 
00:05	56.0	56.0	56.0	58	41.4	0	0	---	0.00	30.011 
00:10	55.9	55.9	55.9	58	41.3	0	0	---	0.00	30.013 
00:15	55.9	55.9	55.9	59	41.8	0	0	---	0.00	30.013 
00:20	55.7	55.7	55.7	60	42.0	0	0	---	0.00	30.011 
00:25	55.7	55.7	55.7	61	42.5	0	0	---	0.00	30.011 
00:30	55.6	55.6	55.6	62	42.8	0	0	---	0.00	30.010 
00:35	55.4	55.4	55.4	63	43.0	0	0	---	0.00	30.008 
00:40	55.3	55.3	55.3	63	42.9	0	0	---	0.00	30.003 
00:45	55.1	55.1	55.1	63	42.7	0	0	---	0.00	30.000 
00:50	55.1	55.1	55.1	61	41.9	0	0	---	0.00	29.998 
00:55	55.3	55.3	55.3	59	41.2	0	0	---	0.00	29.996 
01:00	55.6	55.6	55.6	58	41.1	0	0	---	0.00	29.988 
01:05	56.0	56.0	56.0	59	41.9	0	0	---	0.00	29.991 
01:10	56.3	56.3	56.3	58	41.7	0	0	---	0.00	29.993 
01:15	56.5	56.5	56.5	56	41.0	0	0	---	0.00	29.993 
01:20	56.6	56.6	56.6	57	41.5	0	0	---	0.00	29.992 
01:25	56.5	56.5	56.5	56	41.0	0	0	---	0.00	29.987 
01:30	56.6	56.6	56.6	57	41.5	0	1	68	0.00	29.980 
01:35	56.7	56.7	56.7	54	40.2	0	1	68	0.00	29.978 
01:40	56.9	56.9	56.9	55	40.9	0	0	---	0.00	29.975 
01:45	57.0	57.0	57.0	54	40.5	0	0	---	0.00	29.976 
01:50	56.9	56.9	56.9	54	40.4	0	0	---	0.00	29.976 
01:55	56.9	56.9	56.9	56	41.4	0	0	---	0.00	29.975 
02:00	56.9	56.9	56.9	53	39.9	0	0	---	0.00	29.979 
02:05	56.9	56.9	56.9	54	40.4	0	0	---	0.00	29.977 
02:10	57.0	57.0	57.0	56	41.5	0	1	68	0.00	29.962 
02:15	57.0	57.0	57.0	52	39.5	0	0	---	0.00	29.965 
02:20	57.2	57.2	57.2	52	39.7	0	0	---	0.00	29.976 
02:25	57.3	57.3	57.3	52	39.8	0	0	---	0.00	29.978 
02:30	57.3	57.3	57.3	53	40.3	0	0	---	0.00	29.979 
02:35	57.2	57.2	57.2	53	40.2	0	0	---	0.00	29.975 
02:40	57.0	57.0	57.0	55	41.0	0	0	---	0.00	29.976 
02:45	56.7	56.7	56.7	55	40.7	0	0	---	0.00	29.979 
02:50	56.5	56.5	56.5	56	41.0	0	0	---	0.00	29.978 
02:55	56.0	56.0	56.0	58	41.4	0	0	---	0.00	29.977 
03:00	55.9	55.9	55.9	58	41.3	0	0	---	0.00	29.979 
03:05	55.6	55.6	55.6	59	41.5	0	0	---	0.00	29.980 
03:10	55.3	55.3	55.3	61	42.1	0	0	---	0.00	29.982 
03:15	55.0	55.0	55.0	61	41.8	0	0	---	0.00	29.982 
03:20	54.7	54.7	54.7	61	41.5	0	0	---	0.00	29.980 
03:25	54.5	54.5	54.5	61	41.3	0	0	---	0.00	29.979 
03:30	54.2	54.2	54.2	61	41.0	0	0	---	0.00	29.980 
03:35	54.1	54.1	54.1	62	41.4	0	0	---	0.00	29.979 
03:40	53.8	53.8	53.8	62	41.1	0	0	---	0.00	29.980 
03:45	53.5	53.5	53.5	63	41.2	0	0	---	0.00	29.973 
03:50	53.3	53.3	53.3	65	41.8	0	0	---	0.00	29.975 
03:55	53.1	53.1	53.1	64	41.2	0	0	---	0.00	29.977 
04:00	52.8	52.8	52.8	65	41.4	0	0	---	0.00	29.982 
04:05	52.6	52.6	52.6	64	40.8	0	0	---	0.00	29.981 
04:10	52.5	52.5	52.5	65	41.1	0	0	---	0.00	29.978 
04:15	52.3	52.3	52.3	65	40.9	0	0	---	0.00	29.978 
04:20	52.3	52.3	52.3	66	41.3	0	0	---	0.00	29.982 
04:25	52.3	52.3	52.3	68	42.1	0	0	---	0.00	29.978 
04:30	52.2	52.2	52.2	66	41.2	0	0	---	0.00	29.975 
04:35	52.2	52.2	52.2	68	42.0	0	0	---	0.00	29.971 
04:40	52.2	52.2	52.2	69	42.3	0	0	---	0.00	29.972 
04:45	52.2	52.2	52.2	69	42.3	0	0	---	0.00	29.972 
04:50	52.2	52.2	52.2	68	42.0	0	0	---	0.00	29.975 
04:55	52.3	52.3	52.3	67	41.7	0	0	---	0.00	29.974 
05:00	52.5	52.5	52.5	69	42.6	0	0	---	0.00	29.972 
05:05	52.5	52.5	52.5	69	42.6	0	0	---	0.00	29.971 
05:10	52.6	52.6	52.6	70	43.1	0	0	---	0.00	29.970 
05:15	52.6	52.6	52.6	70	43.1	0	0	---	0.00	29.969 
05:20	52.8	52.8	52.8	70	43.3	0	0	---	0.00	29.969 
05:25	52.8	52.8	52.8	70	43.3	0	0	---	0.00	29.968 
05:30	52.9	52.9	52.9	70	43.4	0	0	---	0.00	29.970 
05:35	53.1	53.1	53.1	68	42.8	0	0	---	0.00	29.972 
05:40	53.2	53.2	53.2	65	41.7	0	0	---	0.00	29.969 
05:45	53.5	53.5	53.5	66	42.4	0	0	---	0.00	29.970 
05:50	53.6	53.6	53.6	67	42.9	0	0	---	0.00	29.968 
05:55	53.8	53.8	53.8	65	42.3	0	0	---	0.00	29.964 
06:00	54.1	54.1	54.1	66	43.0	0	0	---	0.00	29.957 
06:05	54.4	54.4	54.4	65	42.9	0	0	---	0.00	29.956 
06:10	54.7	54.7	54.7	65	43.2	0	0	---	0.00	29.959 
06:15	55.0	55.0	55.0	64	43.0	0	0	---	0.00	29.954 
06:20	55.6	55.6	55.6	64	43.6	0	0	---	0.00	29.954 
06:25	56.2	56.2	56.2	64	44.2	0	0	---	0.00	29.956 
06:30	56.9	56.9	56.9	63	44.4	0	1	68	0.00	29.957 
06:35	57.6	57.6	57.6	62	44.7	0	1	68	0.00	29.955 
06:40	58.6	58.6	58.6	59	44.3	0	1	68	0.00	29.950 
06:45	59.8	59.8	59.8	58	45.0	0	2	68	0.00	29.950 
06:50	60.5	60.5	60.5	58	45.6	0	1	68	0.00	29.948 
06:55	61.3	61.3	61.3	56	45.5	0	1	68	0.00	29.947 
07:00	62.3	62.3	62.3	53	44.9	0	3	68	0.00	29.938 
07:05	63.4	63.4	63.4	53	46.0	0	3	112	0.00	29.943 
07:10	64.7	64.7	64.7	51	46.1	0	1	112	0.00	29.945 
07:15	65.8	65.8	65.8	48	45.6	1	3	112	0.00	29.940 
07:20	66.3	66.3	66.3	50	47.1	0	2	135	0.00	29.944 
07:25	66.0	66.0	66.0	49	46.3	0	4	315	0.00	29.945 
07:30	65.6	65.6	65.6	48	45.4	1	6	68	0.00	29.945 
07:35	66.1	66.1	66.1	50	46.9	1	3	0	0.00	29.945 
07:40	66.9	66.9	66.9	50	47.6	1	4	112	0.00	29.939 
07:45	67.9	67.9	67.9	48	47.5	1	3	315	0.00	29.937 
07:50	68.3	68.3	68.3	45	46.1	1	5	112	0.00	29.941 
07:55	68.4	68.4	68.4	47	47.4	1	5	45	0.00	29.944 
08:00	68.4	68.4	68.4	46	46.8	1	3	270	0.00	29.941 
08:05	68.4	68.4	68.4	46	46.8	1	4	90	0.00	29.942 
08:10	68.6	68.6	68.6	48	48.1	0	2	248	0.00	29.943 
08:15	68.8	68.8	68.8	48	48.3	1	5	248	0.00	29.941 
08:20	68.9	68.9	68.9	48	48.4	1	4	248	0.00	29.942 
08:25	69.1	69.1	69.1	48	48.6	0	2	248	0.00	29.936 
08:30	69.6	69.6	69.6	48	49.0	1	3	248	0.00	29.931 
08:35	69.9	69.9	69.9	49	49.9	1	2	22	0.00	29.929 
08:40	70.4	70.4	70.4	48	49.8	0	3	225	0.00	29.930 
08:45	70.9	70.9	70.9	47	49.7	2	5	112	0.00	29.926 
08:50	71.6	71.6	71.6	47	50.3	1	4	90	0.00	29.922 
08:55	72.1	72.1	72.1	48	51.3	0	2	270	0.00	29.920 
09:00	72.3	72.3	72.3	49	52.1	1	4	270	0.00	29.914 
09:05	72.7	72.7	72.7	46	50.7	1	4	270	0.00	29.912 
09:10	72.7	72.7	72.7	47	51.3	2	5	270	0.00	29.910 
09:15	72.5	72.5	72.5	49	52.2	1	5	248	0.00	29.905 
09:20	72.7	72.7	72.7	49	52.4	1	3	270	0.00	29.909 
09:25	73.0	73.0	73.0	49	52.7	1	4	270	0.00	29.906 
09:30	73.9	73.9	73.9	50	54.1	1	4	112	0.00	29.895 
09:35	74.6	74.6	74.6	49	54.2	2	5	270	0.00	29.893 
09:40	74.9	74.9	74.9	50	55.0	2	7	248	0.00	29.887 
09:45	75.4	75.4	77.8	50	55.4	1	3	270	0.00	29.883 
09:50	75.8	75.8	78.0	50	55.8	2	5	270	0.00	29.880 
09:55	76.1	76.1	78.1	51	56.6	1	5	315	0.00	29.879 
10:00	76.1	76.1	78.1	52	57.2	2	9	270	0.00	29.879 
10:05	75.4	75.4	77.8	53	57.1	4	9	270	0.00	29.882 
10:10	75.4	75.4	77.8	54	57.6	2	7	248	0.00	29.882 
10:15	75.6	75.6	77.8	56	58.8	3	7	270	0.00	29.882 
10:20	75.8	75.8	78.0	55	58.5	2	7	248	0.00	29.882 
10:25	76.1	76.1	78.1	55	58.7	2	4	248	0.00	29.880 
10:30	76.1	76.1	78.1	55	58.7	2	6	270	0.00	29.882 
10:35	76.1	76.1	78.1	56	59.2	3	5	270	0.00	29.882 
10:40	76.5	76.5	78.4	56	59.6	2	8	248	0.00	29.880 
10:45	76.8	76.8	78.6	57	60.4	2	7	248	0.00	29.879 
10:50	77.0	77.0	78.7	57	60.6	2	8	270	0.00	29.880 
10:55	77.2	77.2	78.9	58	61.3	2	7	248	0.00	29.870 
11:00	76.8	76.8	78.6	58	60.9	2	7	270	0.00	29.869 
11:05	76.8	76.8	78.6	58	60.9	3	10	270	0.00	29.874 
11:10	77.0	77.0	78.8	58	61.1	3	7	248	0.00	29.871 
11:15	77.4	77.4	79.1	58	61.4	2	5	248	0.00	29.870 
11:20	77.6	77.6	79.2	58	61.6	3	11	248	0.00	29.867 
11:25	77.2	77.2	78.9	58	61.3	2	6	270	0.00	29.867 
11:30	77.0	77.0	78.8	58	61.1	3	7	270	0.00	29.868 
11:35	77.2	77.2	78.9	58	61.3	3	7	315	0.00	29.866 
11:40	77.9	77.9	79.5	59	62.4	2	7	248	0.00	29.862 
11:45	78.8	78.8	80.3	58	62.8	2	5	270	0.00	29.855 
11:50	79.0	79.0	80.4	56	61.9	2	5	270	0.00	29.854 
11:55	78.6	78.6	80.1	57	62.1	2	5	270	0.00	29.857 
12:00	78.8	78.8	80.3	57	62.3	2	7	248	0.00	29.853 
12:05	79.6	79.6	81.2	58	63.5	2	5	292	0.00	29.851 
12:10	79.9	79.9	81.2	55	62.3	3	11	270	0.00	29.848 
12:15	79.9	79.9	81.2	55	62.3	3	7	248	0.00	29.846 
12:20	79.9	79.9	81.4	57	63.3	2	10	225	0.00	29.845 
12:25	80.3	80.3	81.5	54	62.1	2	6	248	0.00	29.843 
12:30	80.1	80.1	81.3	54	61.9	3	11	270	0.00	29.841 
12:35	79.8	79.8	81.0	54	61.7	3	7	248	0.00	29.832 
12:40	79.6	79.6	81.0	56	62.5	2	8	315	0.00	29.828 
12:45	79.2	79.2	80.4	54	61.1	4	11	248	0.00	29.822 
12:50	79.0	79.0	80.5	57	62.4	3	7	248	0.00	29.818 
12:55	78.8	78.8	80.2	56	61.8	2	6	248	0.00	29.817 
13:00	78.6	78.6	80.0	55	61.1	3	6	248	0.00	29.816 
13:05	78.6	78.6	80.0	55	61.1	2	5	248	0.00	29.814 
13:10	78.8	78.8	80.2	56	61.8	1	8	248	0.00	29.813 
13:15	78.8	78.8	80.1	55	61.2	2	7	270	0.00	29.814 
13:20	78.8	78.8	80.1	55	61.2	2	5	270	0.00	29.814 
13:25	79.0	79.0	80.3	55	61.4	1	5	248	0.00	29.814 
13:30	79.2	79.2	80.5	55	61.6	1	7	270	0.00	29.811 
13:35	79.2	79.2	80.4	54	61.1	2	6	248	0.00	29.812 
13:40	79.4	79.4	80.6	54	61.3	1	4	248	0.00	29.808 
13:45	79.6	79.6	80.8	54	61.5	1	3	270	0.00	29.801 
13:50	79.8	79.8	81.1	55	62.2	2	5	270	0.00	29.801 
13:55	79.8	79.8	81.1	55	62.2	2	6	248	0.00	29.798 
14:00	79.9	79.9	81.2	55	62.3	2	5	248	0.00	29.798 
14:05	79.9	79.9	81.2	55	62.3	3	10	248	0.00	29.795 
14:10	79.9	79.9	81.1	54	61.7	2	7	248	0.00	29.790 
14:15	80.1	80.1	81.3	54	61.9	3	8	248	0.00	29.796 
14:20	80.1	80.1	81.2	53	61.4	3	7	248	0.00	29.797 
14:25	80.3	80.3	81.4	53	61.6	2	7	270	0.00	29.800 
14:30	80.3	80.3	81.3	52	61.0	2	4	270	0.00	29.800 
14:35	80.5	80.5	81.6	53	61.8	2	5	248	0.00	29.799 
14:40	80.9	80.9	81.9	52	61.6	1	5	248	0.00	29.796 
14:45	80.9	80.9	81.8	51	61.0	3	10	248	0.00	29.792 
14:50	80.7	80.7	81.7	52	61.4	2	7	248	0.00	29.788 
14:55	80.9	80.9	81.8	51	61.0	3	6	270	0.00	29.786 
15:00	80.9	80.9	81.8	51	61.0	3	7	270	0.00	29.786 
15:05	80.9	80.9	81.8	51	61.0	2	6	248	0.00	29.784 
15:10	80.7	80.7	81.7	52	61.4	2	6	270	0.00	29.779 
15:15	80.7	80.7	81.7	52	61.4	1	3	270	0.00	29.774 
15:20	80.7	80.7	81.7	52	61.4	1	2	248	0.00	29.785 
15:25	80.5	80.5	81.4	51	60.7	2	9	248	0.00	29.783 
15:30	80.3	80.3	81.2	51	60.5	2	5	248	0.00	29.777 
15:35	80.1	80.1	81.1	52	60.9	1	4	248	0.00	29.768 
15:40	80.1	80.1	81.1	52	60.9	2	7	248	0.00	29.769 
15:45	80.3	80.3	81.3	52	61.0	1	4	270	0.00	29.771 
15:50	80.5	80.5	81.6	53	61.8	1	3	270	0.00	29.770 
15:55	80.7	80.7	81.7	52	61.4	1	3	248	0.00	29.770 
16:00	80.7	80.7	81.8	53	62.0	0	1	248	0.00	29.763 
16:05	80.7	80.7	81.7	52	61.4	1	3	248	0.00	29.764 
16:10	80.5	80.5	81.5	52	61.2	1	3	225	0.00	29.768 
16:15	80.3	80.3	81.4	53	61.6	1	3	225	0.00	29.770 
16:20	79.9	79.9	81.1	54	61.7	0	2	248	0.00	29.758 
16:25	79.8	79.8	80.9	53	61.1	3	10	90	0.00	29.713 
16:30	79.8	79.8	81.0	54	61.7	3	9	112	0.00	29.686 
16:35	79.6	79.6	80.8	54	61.5	3	9	90	0.00	29.685 
16:40	79.6	79.6	80.8	54	61.5	2	4	112	0.00	29.681 
16:45	79.4	79.4	80.6	54	61.3	1	5	68	0.00	29.686 
16:50	79.2	79.2	80.4	54	61.1	1	4	315	0.00	29.691 
16:55	79.0	79.0	80.3	54	60.9	2	6	225	0.00	29.701 
17:00	79.0	79.0	80.3	54	60.9	2	6	292	0.00	29.708 
17:05	79.0	79.0	80.3	55	61.4	2	7	248	0.00	29.712 
17:10	79.0	79.0	80.3	54	60.9	2	7	248	0.00	29.704 
17:15	78.8	78.8	80.1	55	61.2	1	5	248	0.00	29.703 
17:20	78.8	78.8	80.1	55	61.2	1	3	248	0.00	29.710 
17:25	78.6	78.6	80.0	55	61.1	1	5	248	0.00	29.679 
17:30	78.6	78.6	79.9	54	60.5	2	8	112	0.00	29.675 
17:35	78.6	78.6	79.9	54	60.5	1	5	90	0.00	29.679 
17:40	78.6	78.6	79.9	54	60.5	1	5	112	0.00	29.678 
17:45	78.8	78.8	80.1	54	60.7	2	9	248	0.00	29.683 
17:50	78.8	78.8	80.1	55	61.2	2	11	90	0.00	29.678 
17:55	78.3	78.3	79.8	56	61.3	2	6	90	0.00	29.664 
18:00	78.1	78.1	79.6	56	61.1	2	7	112	0.00	29.656 
18:05	77.9	77.9	79.5	57	61.4	2	8	270	0.00	29.656 
18:10	77.4	77.4	79.1	57	61.0	3	9	248	0.00	29.655 
18:15	76.7	76.7	78.5	61	62.2	3	9	248	0.00	29.661 
18:20	75.3	75.3	77.4	64	62.3	2	6	270	0.01	29.657 
18:25	73.7	73.7	73.7	68	62.5	2	5	248	0.01	29.663 
18:30	72.7	72.7	72.7	69	61.9	3	7	270	0.00	29.666 
18:35	72.3	72.3	72.3	71	62.4	2	6	270	0.01	29.680 
18:40	72.1	72.1	72.1	72	62.6	1	4	225	0.00	29.683 
18:45	72.0	72.0	72.0	74	63.2	1	4	292	0.00	29.688 
18:50	72.0	72.0	72.0	75	63.6	1	4	270	0.00	29.702 
18:55	71.8	71.8	71.8	78	64.6	0	2	270	0.01	29.707 
19:00	71.5	71.5	71.5	80	65.0	0	3	270	0.00	29.699 
19:05	71.1	71.1	71.1	82	65.3	1	3	68	0.01	29.668 
19:10	70.9	70.9	70.9	82	65.1	4	13	90	0.01	29.637 
19:15	70.8	70.8	70.8	83	65.4	6	13	112	0.00	29.608 
19:20	70.4	70.4	70.4	83	65.0	5	12	90	0.01	29.602 
19:25	70.6	70.6	70.6	82	64.8	6	25	90	0.00	29.578 
19:30	70.9	70.9	70.9	81	64.8	5	13	270	0.00	29.622 
19:35	71.1	71.1	71.1	80	64.6	5	11	270	0.01	29.664 
19:40	71.1	71.1	71.1	79	64.2	4	12	270	0.00	29.636 
19:45	71.3	71.3	71.3	78	64.1	4	13	270	0.00	29.657 
19:50	71.3	71.3	71.3	77	63.7	3	8	270	0.00	29.655 
19:55	71.3	71.3	71.3	77	63.7	4	13	248	0.00	29.667 
20:00	71.1	71.1	71.1	78	63.9	4	10	270	0.01	29.684 
20:05	70.8	70.8	70.8	80	64.3	3	7	270	0.01	29.697 
20:10	70.4	70.4	70.4	82	64.6	3	10	270	0.01	29.708 
20:15	70.1	70.1	70.1	84	65.0	2	7	248	0.01	29.714 
20:20	69.6	69.6	69.6	86	65.2	1	6	248	0.02	29.700 
20:25	69.3	69.3	69.3	87	65.3	2	5	248	0.02	29.702 
20:30	69.1	69.1	69.1	88	65.4	1	9	248	0.01	29.688 
20:35	68.9	68.9	68.9	89	65.5	0	2	0	0.01	29.686 
20:40	68.9	68.9	68.9	90	65.8	1	5	248	0.01	29.713 
20:45	68.8	68.8	68.8	90	65.7	2	4	248	0.00	29.719 
20:50	68.8	68.8	68.8	91	66.1	2	4	248	0.01	29.717 
20:55	68.8	68.8	68.8	90	65.7	3	7	248	0.00	29.716 
21:00	68.6	68.6	68.6	90	65.5	3	7	248	0.01	29.717 
21:05	68.4	68.4	68.4	89	65.0	2	7	248	0.01	29.721 
21:10	68.3	68.3	68.3	90	65.2	3	7	248	0.01	29.720 
21:15	68.1	68.1	68.1	90	65.0	2	7	270	0.01	29.715 
21:20	67.9	67.9	67.9	90	64.9	1	6	248	0.00	29.714 
21:25	67.8	67.8	67.8	91	65.1	0	2	90	0.01	29.712 
21:30	67.4	67.4	67.4	91	64.7	1	4	270	0.01	29.714 
21:35	67.4	67.4	67.4	92	65.0	1	4	90	0.00	29.706 
21:40	67.3	67.3	67.3	92	64.9	1	4	270	0.01	29.708 
21:45	67.3	67.3	67.3	92	64.9	2	5	248	0.01	29.718 
21:50	67.3	67.3	67.3	93	65.2	2	4	225	0.03	29.715 
21:55	67.3	67.3	67.3	93	65.2	1	3	292	0.02	29.721 
22:00	67.3	67.3	67.3	93	65.2	1	3	270	0.03	29.732 
22:05	66.9	66.9	66.9	93	64.8	1	7	248	0.05	29.737 
22:10	66.0	66.0	66.0	92	63.6	3	10	90	0.18	29.729 
22:15	64.7	64.7	64.7	89	61.4	4	11	112	0.19	29.715 
22:20	64.3	64.3	64.3	91	61.6	4	7	112	0.19	29.703 
22:25	64.0	64.0	64.0	92	61.6	3	9	112	0.18	29.687 
22:30	63.7	63.7	63.7	92	61.3	3	6	112	0.11	29.659 
22:35	63.9	63.9	63.9	93	61.8	3	6	112	0.10	29.656 
22:40	63.4	63.4	63.4	93	61.3	2	6	112	0.12	29.666 
22:45	63.1	63.1	63.1	93	61.0	1	3	270	0.11	29.701 
22:50	62.9	62.9	62.9	94	61.1	1	5	270	0.04	29.701 
22:55	62.6	62.6	62.6	94	60.8	1	4	112	0.02	29.701 
23:00	62.4	62.4	62.4	94	60.6	0	1	112	0.00	29.689 
23:05	62.4	62.4	62.4	95	60.9	0	1	135	0.01	29.689 
23:10	62.6	62.6	62.6	95	61.1	0	1	135	0.00	29.689 
23:15	62.7	62.7	62.7	95	61.2	0	1	135	0.00	29.668 
23:20	62.7	62.7	62.7	96	61.5	0	1	135	0.00	29.668 
23:25	62.7	62.7	62.7	96	61.5	0	2	135	0.00	29.668 
23:30	62.7	62.7	62.7	96	61.5	1	2	248	0.09	29.706 
23:35	62.7	62.7	62.7	96	61.5	1	3	248	0.10	29.706 
23:40	62.7	62.7	62.7	96	61.5	1	3	112	0.18	29.706 
23:45	62.7	62.7	62.7	96	61.5	1	4	45	0.08	29.692 
23:50	62.7	62.7	62.7	96	61.5	0	2	0	0.07	29.692 
23:55	62.7	62.7	62.7	96	61.5	1	3	68	0.05	29.692 

CoCoRaHS
IN-AL-39
A2 Web Hosting
Creative Commons License
GoDaddy
Look for:

loaded 2017-12-12 17:01:41 • last modified 2010-11-18 10:43:29
Privacy PolicyDisclaimer
• wx.awcolley.com is powered by PmWiki v.2002016 •
• all content (unless otherwise noted) © 2017 A W Colley